Málaga, Spain

1:46 PM CEST on September 01, 2015 (GMT +0200)
Malaga | | Change Station
CLOSE
Current Station
Airport
Location: Malaga,
Elevation: 23 ft
Nearby Weather Stations

Elev 23 ft 36.68 °N, 4.49 °W | Updated 16 minutes ago

Partly Cloudy
Partly Cloudy
93 °F
Feels Like 93 °F
N
9
Wind Variable Wind from SE

Today
High -- | Low -- °F
--% Chance of Precip.
Yesterday
High -- | Low -- °F
Precip. -- in
7:48 AM 8:46 PM
Waning Gibbous, 89% visible
Pressure 29.98 in
Visibility 6.2 miles
Clouds Few 5000 ft
Heat Index 93 °F
Dew Point 61 °F
Humidity 34%
Rainfall 0.00 in
Snow Depth Not available.
UV 10 out of 12
Pollen Not available.
Air Quality Not available.
Flu Activity Not available.
METAR LEMG 011130Z 13008KT 080V170 9999 FEW050 34/16 Q1015 NOSIG
Pressure 29.98 in
Visibility 6.2 miles
Clouds Few 5000 ft
Heat Index 93 °F
Dew Point 61 °F
Humidity 34%
Rainfall 0.00 in
Snow Depth Not available.
UV 10 out of 12
Pollen Not available.
Air Quality Not available.
Flu Activity Not available.
METAR LEMG 011130Z 13008KT 080V170 9999 FEW050 34/16 Q1015 NOSIG

10-Day Weather Forecast

×

Almanac

Astronomy

Sep. 01, 2015 Rise Set
Actual Time
Civil Twilight
Nautical Twilight
Astronomical Twilight
Moon
Length of Visible Light
Length of Day
Tomorrow will be .
, % of the Moon is Illuminated

Today's Extremes

Country Highs Country Lows

Community

WunderPhotos

Upload Photos

1,851,506 photos uploaded!

WunderBlogs® & News

Nearby

Air Quality

  Air Quality AQ Index Pollutant
Not available.

Snow Depth

Station Depth Elevation

Earthquake Activity

City Distance Mag. Time & Date
Minimum magnitude displayed is 2.5.

Coastal Water Temperatures

Place Temperature

Stations

Nearby Weather Stations

Station Location Temp. Windchill Dew Point Humidity Wind Precip. Elev Updated Type